createdAt,value
2019-02-22T00:01:16.566Z,66.63
2019-02-22T00:03:44.845Z,66.56
2019-02-22T00:06:13.102Z,66.52
2019-02-22T00:08:41.407Z,67.20
2019-02-22T00:11:09.673Z,67.05
2019-02-22T00:13:37.945Z,66.74
2019-02-22T00:16:06.213Z,66.25
2019-02-22T00:18:34.483Z,66.91
2019-02-22T00:21:02.759Z,66.80
2019-02-22T00:23:31.028Z,67.37
2019-02-22T00:25:59.311Z,67.52
2019-02-22T00:28:27.576Z,67.88
2019-02-22T00:30:55.854Z,68.10
2019-02-22T00:33:24.195Z,68.21
2019-02-22T00:35:52.479Z,68.39
2019-02-22T00:38:20.779Z,68.09
2019-02-22T00:40:49.210Z,67.60
2019-02-22T00:43:17.507Z,67.38
2019-02-22T00:45:45.757Z,67.09
2019-02-22T00:48:14.024Z,66.89
2019-02-22T00:50:42.290Z,67.00
2019-02-22T00:53:10.566Z,67.26
2019-02-22T00:55:38.906Z,67.29
2019-02-22T00:58:07.175Z,67.38
2019-02-22T01:00:35.470Z,66.65
2019-02-22T01:03:03.732Z,66.56
2019-02-22T01:05:32.021Z,66.69
2019-02-22T01:08:00.308Z,67.01
2019-02-22T01:10:31.457Z,66.86
2019-02-22T01:12:58.602Z,66.68
2019-02-22T01:15:26.867Z,66.46
2019-02-22T01:17:55.146Z,66.62
2019-02-22T01:20:23.438Z,67.14
2019-02-22T01:22:51.736Z,66.69
2019-02-22T01:25:20.002Z,66.48
2019-02-22T01:27:48.306Z,66.62
2019-02-22T01:30:16.563Z,67.07
2019-02-22T01:32:44.824Z,67.41
2019-02-22T01:35:13.115Z,67.33
2019-02-22T01:37:41.408Z,67.66
2019-02-22T01:40:10.516Z,67.76
2019-02-22T01:42:38.805Z,67.73
2019-02-22T01:45:07.537Z,67.50
2019-02-22T01:47:35.831Z,67.40
2019-02-22T01:50:05.334Z,67.54
2019-02-22T01:52:33.619Z,67.44
2019-02-22T01:55:01.909Z,67.45
2019-02-22T01:57:30.209Z,67.67
2019-02-22T01:59:58.463Z,67.61
2019-02-22T02:02:26.792Z,67.96
2019-02-22T02:04:55.055Z,67.74
2019-02-22T02:07:23.313Z,67.94
2019-02-22T02:09:51.593Z,67.55
2019-02-22T02:12:19.866Z,67.28
2019-02-22T02:14:48.141Z,67.43
2019-02-22T02:17:17.782Z,67.50
2019-02-22T02:19:46.335Z,67.52
2019-02-22T02:22:14.639Z,67.40
2019-02-22T02:24:42.996Z,67.24
2019-02-22T02:27:11.296Z,67.05
2019-02-22T02:29:39.558Z,67.63
2019-02-22T02:32:07.850Z,67.73
2019-02-22T02:34:36.249Z,67.18
2019-02-22T02:37:04.541Z,67.52
2019-02-22T02:39:32.809Z,67.36
2019-02-22T02:42:01.081Z,67.70
2019-02-22T02:44:29.352Z,67.66
2019-02-22T02:46:57.641Z,68.07
2019-02-22T02:49:25.901Z,68.11
2019-02-22T02:51:54.202Z,67.88
2019-02-22T02:54:22.485Z,68.26
2019-02-22T02:56:50.756Z,67.91
2019-02-22T02:59:19.026Z,68.55
2019-02-22T03:01:47.284Z,68.12
2019-02-22T03:04:15.577Z,67.95
2019-02-22T03:06:48.330Z,67.71
2019-02-22T03:09:16.666Z,67.85
2019-02-22T03:11:44.891Z,68.22
2019-02-22T03:14:13.155Z,68.16
2019-02-22T03:16:41.443Z,67.92
2019-02-22T03:19:09.706Z,67.99
2019-02-22T03:21:37.978Z,67.53
2019-02-22T03:24:06.242Z,68.15
2019-02-22T03:26:34.534Z,67.89
2019-02-22T03:29:02.804Z,67.98
2019-02-22T03:31:31.122Z,67.96
2019-02-22T03:33:59.384Z,68.29
2019-02-22T03:36:27.658Z,67.87
2019-02-22T03:38:55.923Z,67.88
2019-02-22T03:41:32.211Z,67.37
2019-02-22T03:43:54.207Z,67.28
2019-02-22T03:46:22.513Z,67.56
2019-02-22T03:48:50.876Z,67.47
2019-02-22T03:51:19.140Z,67.77
2019-02-22T03:53:48.614Z,67.68
2019-02-22T03:56:16.908Z,67.76
2019-02-22T03:58:45.182Z,68.24
2019-02-22T04:01:13.475Z,68.07
2019-02-22T04:03:41.772Z,68.02
2019-02-22T04:06:10.050Z,67.66
2019-02-22T04:08:38.341Z,67.48
2019-02-22T04:11:06.609Z,67.38
2019-02-22T04:13:34.882Z,67.14
2019-02-22T04:16:03.150Z,67.11
2019-02-22T04:18:31.429Z,67.20
2019-02-22T04:20:59.727Z,67.34
2019-02-22T04:23:27.996Z,67.43
2019-02-22T04:25:56.294Z,67.48
2019-02-22T04:28:24.570Z,67.45
2019-02-22T04:30:52.844Z,67.19
2019-02-22T04:33:21.135Z,67.72
2019-02-22T04:35:49.394Z,67.36
2019-02-22T04:38:17.694Z,67.64
2019-02-22T04:40:45.996Z,67.94
2019-02-22T04:43:14.251Z,67.77
2019-02-22T04:45:42.554Z,68.13
2019-02-22T04:48:10.861Z,69.18
2019-02-22T04:50:39.099Z,69.05
2019-02-22T04:53:07.389Z,70.23
2019-02-22T04:55:35.682Z,70.07
2019-02-22T04:58:03.931Z,69.74
2019-02-22T05:00:32.202Z,69.82
2019-02-22T05:03:00.467Z,69.66
2019-02-22T05:05:28.767Z,69.91
2019-02-22T05:07:57.024Z,69.74
2019-02-22T05:10:25.324Z,69.46
2019-02-22T05:12:53.566Z,69.38
2019-02-22T05:15:21.859Z,69.76
2019-02-22T05:17:50.113Z,69.77
2019-02-22T05:20:18.563Z,69.30
2019-02-22T05:22:46.823Z,69.17
2019-02-22T05:25:15.074Z,69.01
2019-02-22T05:27:43.384Z,69.30
2019-02-22T05:30:11.633Z,68.96
2019-02-22T05:32:39.887Z,68.22
2019-02-22T05:35:08.144Z,68.33
2019-02-22T05:37:36.402Z,68.68
2019-02-22T05:40:05.423Z,69.21
2019-02-22T05:42:33.676Z,69.77
2019-02-22T05:45:12.539Z,70.69
2019-02-22T05:47:41.224Z,70.59
2019-02-22T05:50:09.420Z,70.03
2019-02-22T05:52:37.739Z,70.52
2019-02-22T05:55:06.354Z,71.13
2019-02-22T05:57:34.607Z,70.51
2019-02-22T06:00:02.869Z,70.26
2019-02-22T06:02:33.733Z,70.18
2019-02-22T06:05:01.146Z,70.42
2019-02-22T06:07:29.421Z,70.05
2019-02-22T06:09:57.698Z,69.94
2019-02-22T06:12:34.258Z,69.05
2019-02-22T06:14:55.946Z,69.92
2019-02-22T06:17:24.210Z,69.72
2019-02-22T06:19:52.478Z,70.24
2019-02-22T06:22:29.071Z,69.75
2019-02-22T06:24:50.743Z,70.15
2019-02-22T06:27:19.029Z,69.81
2019-02-22T06:29:49.295Z,69.80
2019-02-22T06:32:17.306Z,69.25
2019-02-22T06:34:45.573Z,69.95
2019-02-22T06:37:13.826Z,69.69
2019-02-22T06:39:42.137Z,69.44
2019-02-22T06:42:10.446Z,69.90
2019-02-22T06:44:38.711Z,69.53
2019-02-22T06:47:06.974Z,70.66
2019-02-22T06:49:35.261Z,70.21
2019-02-22T06:52:03.523Z,69.93
2019-02-22T06:54:31.823Z,70.23
2019-02-22T06:57:00.079Z,70.20
2019-02-22T06:59:28.361Z,69.66
2019-02-22T07:01:56.617Z,68.27
2019-02-22T07:04:24.958Z,69.06
2019-02-22T07:06:53.231Z,68.06
2019-02-22T07:09:21.485Z,68.23
2019-02-22T07:11:51.413Z,68.52
2019-02-22T07:14:19.684Z,68.41
2019-02-22T07:16:48.171Z,67.54
2019-02-22T07:19:16.563Z,67.17
2019-02-22T07:21:52.427Z,67.31
2019-02-22T07:24:14.825Z,66.75
2019-02-22T07:26:43.113Z,66.95
2019-02-22T07:29:11.372Z,66.81
2019-02-22T07:31:39.666Z,66.68
2019-02-22T07:34:07.948Z,67.05
2019-02-22T07:36:36.250Z,67.18
2019-02-22T07:39:05.510Z,66.52
2019-02-22T07:41:33.792Z,66.29
2019-02-22T07:44:02.062Z,65.95
2019-02-22T07:46:30.351Z,66.23
2019-02-22T07:48:58.611Z,65.85
2019-02-22T07:51:26.935Z,66.42
2019-02-22T07:53:55.187Z,65.75
2019-02-22T07:56:23.509Z,66.19
2019-02-22T07:58:51.774Z,66.82
2019-02-22T08:01:20.027Z,66.24
2019-02-22T08:03:48.295Z,66.69
2019-02-22T08:06:16.560Z,65.93
2019-02-22T08:08:44.842Z,65.55
2019-02-22T08:11:13.102Z,66.21
2019-02-22T08:13:41.383Z,66.06
2019-02-22T08:16:09.651Z,65.65
2019-02-22T08:18:37.924Z,66.68
2019-02-22T08:21:06.199Z,65.70
2019-02-22T08:23:34.485Z,65.39
2019-02-22T08:26:02.743Z,64.87
2019-02-22T08:28:31.007Z,63.87
2019-02-22T08:30:59.292Z,64.07
2019-02-22T08:33:27.548Z,63.71
2019-02-22T08:35:55.839Z,64.36
2019-02-22T08:38:24.091Z,63.86
2019-02-22T08:40:52.383Z,63.57
2019-02-22T08:43:30.790Z,63.26
2019-02-22T08:45:50.665Z,62.66
2019-02-22T08:48:18.918Z,62.88
2019-02-22T08:50:47.175Z,63.51
2019-02-22T08:53:15.434Z,64.47
2019-02-22T08:55:43.694Z,64.48
2019-02-22T08:58:11.983Z,64.23
2019-02-22T09:00:40.250Z,63.91
2019-02-22T09:03:08.521Z,62.85
2019-02-22T09:05:36.845Z,62.29
2019-02-22T09:08:05.127Z,63.24
2019-02-22T09:10:33.385Z,63.57
2019-02-22T09:13:01.671Z,62.29
2019-02-22T09:15:29.932Z,62.13
2019-02-22T09:17:58.237Z,61.83
2019-02-22T09:20:26.505Z,61.91
2019-02-22T09:22:54.778Z,62.16
2019-02-22T09:25:23.144Z,62.14
2019-02-22T09:27:51.417Z,61.69
2019-02-22T09:30:19.665Z,60.92
2019-02-22T09:32:47.948Z,61.47
2019-02-22T09:35:16.209Z,61.14
2019-02-22T09:37:44.504Z,58.79
2019-02-22T09:40:14.829Z,58.47
2019-02-22T09:42:42.907Z,58.02
2019-02-22T09:45:12.457Z,57.96
2019-02-22T09:47:43.490Z,57.74
2019-02-22T09:50:14.934Z,56.49
2019-02-22T09:52:43.258Z,56.29
2019-02-22T09:55:12.786Z,56.06
2019-02-22T09:57:41.049Z,55.45
2019-02-22T10:00:11.839Z,54.28
2019-02-22T10:02:40.123Z,52.79
2019-02-22T10:05:10.014Z,52.07
2019-02-22T10:07:38.282Z,52.10
2019-02-22T10:10:10.541Z,50.95
2019-02-22T10:12:38.796Z,51.61
2019-02-22T10:15:10.670Z,51.62
2019-02-22T10:17:38.928Z,50.08
2019-02-22T10:20:11.590Z,50.43
2019-02-22T10:22:39.843Z,49.65
2019-02-22T10:25:10.028Z,49.32
2019-02-22T10:27:38.278Z,48.14
2019-02-22T10:30:09.897Z,47.34
2019-02-22T10:32:38.182Z,48.88
2019-02-22T10:35:07.493Z,48.52
2019-02-22T10:37:35.762Z,45.81
2019-02-22T10:40:05.755Z,45.58
2019-02-22T10:42:34.023Z,43.25
2019-02-22T10:45:02.283Z,43.05
2019-02-22T10:47:30.552Z,43.98
2019-02-22T10:49:58.810Z,43.18
2019-02-22T10:52:27.090Z,43.46
2019-02-22T10:54:55.342Z,43.05
2019-02-22T10:57:23.642Z,41.85
2019-02-22T10:59:51.898Z,41.54
2019-02-22T11:02:20.181Z,40.45
2019-02-22T11:04:48.455Z,39.50
2019-02-22T11:07:16.761Z,38.84
2019-02-22T11:09:45.009Z,37.39
2019-02-22T11:12:13.260Z,37.31
2019-02-22T11:14:41.522Z,36.71
2019-02-22T11:17:09.813Z,37.12
2019-02-22T11:19:38.077Z,36.13
2019-02-22T11:22:06.357Z,37.38
2019-02-22T11:24:34.610Z,36.74
2019-02-22T11:27:02.898Z,37.31
2019-02-22T11:29:31.152Z,36.99
2019-02-22T11:31:59.414Z,37.72
2019-02-22T11:34:27.703Z,38.71
2019-02-22T11:36:55.956Z,38.15
2019-02-22T11:39:24.333Z,38.83
2019-02-22T11:41:52.608Z,40.28
2019-02-22T11:44:20.895Z,40.87
2019-02-22T11:46:49.169Z,42.89
2019-02-22T11:49:17.453Z,39.12
2019-02-22T11:51:45.710Z,38.83
2019-02-22T11:54:13.983Z,40.21
2019-02-22T11:56:42.252Z,39.81
2019-02-22T11:59:10.542Z,39.58
2019-02-22T12:01:38.801Z,39.58
2019-02-22T12:04:08.114Z,43.02
2019-02-22T12:06:36.360Z,42.45
2019-02-22T12:09:04.895Z,43.65
2019-02-22T12:11:33.148Z,40.73
2019-02-22T12:14:01.432Z,40.70
2019-02-22T12:16:29.689Z,40.32
2019-02-22T12:18:57.950Z,40.53
2019-02-22T12:21:26.219Z,38.36
2019-02-22T12:23:54.490Z,39.11
2019-02-22T12:26:22.786Z,39.87
2019-02-22T12:28:51.040Z,37.80
2019-02-22T12:31:19.328Z,41.02
2019-02-22T12:33:47.649Z,38.95
2019-02-22T12:36:15.959Z,41.46
2019-02-22T12:38:44.209Z,39.76
2019-02-22T12:41:12.496Z,37.27
2019-02-22T12:43:40.779Z,37.23
2019-02-22T12:46:10.449Z,37.38
2019-02-22T12:48:38.738Z,38.86
2019-02-22T12:51:07.400Z,40.24
2019-02-22T12:53:35.681Z,39.55
2019-02-22T12:56:03.935Z,37.49
2019-02-22T12:58:32.202Z,38.45
2019-02-22T13:01:00.457Z,37.55
2019-02-22T13:03:28.913Z,37.65
2019-02-22T13:05:57.170Z,38.63
2019-02-22T13:08:25.463Z,38.62
2019-02-22T13:10:53.745Z,36.41
2019-02-22T13:13:22.006Z,36.61
2019-02-22T13:15:50.295Z,38.15
2019-02-22T13:18:18.549Z,34.95
2019-02-22T13:20:48.989Z,34.86
2019-02-22T13:23:17.256Z,34.10
2019-02-22T13:25:45.515Z,35.52
2019-02-22T13:28:13.775Z,36.04
2019-02-22T13:30:42.060Z,36.90
2019-02-22T13:33:10.352Z,37.03
2019-02-22T13:35:38.610Z,37.11
2019-02-22T13:38:06.899Z,39.12
2019-02-22T13:40:35.151Z,37.49
2019-02-22T13:43:05.327Z,35.87
2019-02-22T13:45:33.434Z,34.54
2019-02-22T13:48:01.699Z,34.31
2019-02-22T13:50:29.996Z,34.81
2019-02-22T13:52:58.243Z,36.13
2019-02-22T13:55:26.509Z,33.99
2019-02-22T13:57:54.801Z,35.03
2019-02-22T14:00:23.157Z,35.21
2019-02-22T14:02:51.507Z,33.98
2019-02-22T14:05:19.784Z,35.26
2019-02-22T14:07:58.706Z,35.90
2019-02-22T14:10:27.952Z,32.82
2019-02-22T14:12:56.217Z,34.15
2019-02-22T14:15:24.506Z,34.02
2019-02-22T14:17:53.113Z,34.31
2019-02-22T14:20:21.374Z,33.81
2019-02-22T14:22:51.722Z,34.84
2019-02-22T14:25:20.133Z,35.06
2019-02-22T14:27:51.383Z,34.24
2019-02-22T14:30:19.678Z,34.22
2019-02-22T14:32:47.933Z,33.30
2019-02-22T14:35:16.216Z,32.89
2019-02-22T14:37:44.579Z,31.66
2019-02-22T14:40:13.776Z,31.37
2019-02-22T14:42:42.047Z,31.47
2019-02-22T14:45:11.454Z,32.48
2019-02-22T14:47:39.756Z,32.49
2019-02-22T14:50:11.272Z,33.89
2019-02-22T14:52:39.567Z,33.43
2019-02-22T14:55:08.671Z,31.95
2019-02-22T14:57:36.949Z,30.46
2019-02-22T15:00:08.500Z,31.31
2019-02-22T15:02:38.386Z,30.58
2019-02-22T15:05:09.309Z,33.06
2019-02-22T15:07:37.693Z,31.72
2019-02-22T15:10:08.020Z,31.97
2019-02-22T15:12:36.321Z,31.61
2019-02-22T15:15:07.424Z,30.32
2019-02-22T15:17:46.360Z,30.39
2019-02-22T15:20:14.624Z,33.86
2019-02-22T15:22:42.913Z,32.15
2019-02-22T15:25:13.027Z,37.97
2019-02-22T15:27:41.321Z,39.24
2019-02-22T15:30:12.118Z,35.71
2019-02-22T15:32:40.392Z,36.80
2019-02-22T15:35:14.037Z,36.53
2019-02-22T15:37:43.368Z,38.62
2019-02-22T15:40:14.030Z,39.20
2019-02-22T15:42:42.297Z,38.67
2019-02-22T15:45:18.112Z,41.19
2019-02-22T15:47:48.679Z,41.26
2019-02-22T15:50:18.435Z,42.13
2019-02-22T15:52:48.212Z,41.28
2019-02-22T15:55:16.641Z,41.25
2019-02-22T15:57:44.910Z,41.73
2019-02-22T16:00:16.599Z,41.37
2019-02-22T16:02:44.252Z,40.36
2019-02-22T16:05:14.152Z,41.31
2019-02-22T16:07:44.960Z,41.93
2019-02-22T16:10:12.885Z,41.22
2019-02-22T16:12:41.183Z,41.03
2019-02-22T16:15:10.665Z,41.25
2019-02-22T16:17:39.005Z,41.84
2019-02-22T16:20:08.175Z,40.91
2019-02-22T16:22:36.439Z,44.34
2019-02-22T16:25:05.844Z,42.58
2019-02-22T16:27:34.171Z,43.02
2019-02-22T16:30:02.746Z,43.34
2019-02-22T16:32:31.013Z,43.56
2019-02-22T16:34:59.312Z,43.58
2019-02-22T16:37:27.623Z,42.62
2019-02-22T16:39:55.881Z,43.94
2019-02-22T16:42:24.174Z,42.70
2019-02-22T16:44:52.436Z,45.92
2019-02-22T16:47:21.043Z,43.09
2019-02-22T16:49:49.300Z,42.88
2019-02-22T16:52:17.580Z,44.70
2019-02-22T16:54:45.836Z,45.06
2019-02-22T16:57:14.096Z,42.08
2019-02-22T16:59:42.403Z,43.35
2019-02-22T17:02:12.746Z,43.75
2019-02-22T17:04:41.047Z,42.80
2019-02-22T17:07:09.306Z,42.10
2019-02-22T17:09:37.616Z,44.34
2019-02-22T17:12:06.855Z,43.41
2019-02-22T17:14:35.338Z,43.08
2019-02-22T17:17:04.626Z,43.39
2019-02-22T17:19:34.144Z,43.08
2019-02-22T17:22:02.437Z,43.48
2019-02-22T17:24:31.730Z,43.10
2019-02-22T17:27:00.007Z,42.17
2019-02-22T17:29:28.308Z,42.63
2019-02-22T17:31:56.603Z,42.35
2019-02-22T17:34:24.872Z,42.96
2019-02-22T17:36:53.147Z,42.42
2019-02-22T17:39:21.440Z,42.75
2019-02-22T17:41:49.700Z,43.67
2019-02-22T17:44:18.031Z,44.50
2019-02-22T17:46:56.972Z,44.14
2019-02-22T17:49:16.277Z,43.69
2019-02-22T17:51:45.930Z,45.59
2019-02-22T17:54:14.177Z,44.01
2019-02-22T17:56:42.478Z,44.45
2019-02-22T17:59:10.771Z,45.65
2019-02-22T18:01:39.049Z,46.95
2019-02-22T18:04:07.314Z,47.15
2019-02-22T18:06:35.614Z,45.75
2019-02-22T18:09:05.095Z,46.60
2019-02-22T18:11:33.359Z,47.39
2019-02-22T18:14:01.635Z,46.32
2019-02-22T18:16:29.945Z,45.95
2019-02-22T18:18:58.223Z,46.45
2019-02-22T18:21:26.503Z,47.17
2019-02-22T18:23:54.766Z,47.16
2019-02-22T18:26:23.063Z,46.88
2019-02-22T18:28:54.138Z,47.82
2019-02-22T18:31:22.451Z,47.46
2019-02-22T18:33:51.096Z,50.21
2019-02-22T18:36:19.381Z,48.30
2019-02-22T18:38:47.657Z,46.55
2019-02-22T18:41:16.005Z,47.38
2019-02-22T18:43:44.419Z,48.77
2019-02-22T18:46:28.959Z,48.25
2019-02-22T18:48:57.351Z,48.64
2019-02-22T18:51:25.641Z,50.09
2019-02-22T18:53:53.898Z,48.71
2019-02-22T18:56:22.172Z,48.61
2019-02-22T18:58:50.435Z,48.98
2019-02-22T19:01:18.730Z,47.32
2019-02-22T19:03:46.994Z,47.37
2019-02-22T19:06:15.284Z,46.56
2019-02-22T19:08:43.550Z,48.23
2019-02-22T19:11:13.496Z,46.29
2019-02-22T19:13:41.760Z,45.69
2019-02-22T19:16:10.444Z,45.91
2019-02-22T19:18:38.767Z,46.00
2019-02-22T19:21:07.059Z,46.12
2019-02-22T19:23:35.679Z,45.02
2019-02-22T19:26:03.987Z,46.05
2019-02-22T19:28:32.341Z,47.30
2019-02-22T19:31:00.657Z,45.27
2019-02-22T19:33:28.936Z,47.13
2019-02-22T19:35:57.224Z,47.29
2019-02-22T19:38:25.503Z,46.00
2019-02-22T19:40:53.781Z,45.87
2019-02-22T19:43:22.077Z,47.24
2019-02-22T19:45:50.346Z,46.47
2019-02-22T19:48:18.644Z,45.97
2019-02-22T19:50:46.924Z,46.85
2019-02-22T19:53:15.233Z,49.01
2019-02-22T19:55:43.511Z,48.87
2019-02-22T19:58:14.469Z,48.43
2019-02-22T20:00:42.787Z,47.88
2019-02-22T20:03:11.940Z,46.95
2019-02-22T20:05:40.407Z,47.24
2019-02-22T20:08:08.765Z,48.48
2019-02-22T20:10:38.128Z,49.12
2019-02-22T20:13:06.420Z,48.36
2019-02-22T20:15:34.680Z,50.13
2019-02-22T20:18:04.245Z,49.20
2019-02-22T20:20:32.509Z,49.08
2019-02-22T20:23:00.805Z,49.95
2019-02-22T20:25:29.072Z,49.61
2019-02-22T20:27:57.378Z,50.84
2019-02-22T20:30:25.643Z,50.86
2019-02-22T20:32:53.908Z,49.36
2019-02-22T20:35:26.533Z,49.36
2019-02-22T20:37:54.793Z,50.70
2019-02-22T20:40:23.082Z,50.42
2019-02-22T20:42:51.343Z,49.98
2019-02-22T20:45:19.647Z,50.46
2019-02-22T20:47:48.111Z,50.92
2019-02-22T20:50:16.427Z,51.13
2019-02-22T20:52:44.702Z,51.21
2019-02-22T20:55:14.618Z,51.34
2019-02-22T20:57:42.911Z,51.64
2019-02-22T21:00:27.980Z,50.77
2019-02-22T21:02:56.273Z,51.29
2019-02-22T21:05:24.541Z,51.83
2019-02-22T21:07:55.542Z,51.08
2019-02-22T21:10:23.869Z,51.44
2019-02-22T21:12:52.163Z,51.77
2019-02-22T21:15:20.424Z,52.34
2019-02-22T21:17:48.728Z,52.24
2019-02-22T21:20:18.433Z,52.78
2019-02-22T21:22:46.690Z,52.90
2019-02-22T21:25:14.982Z,52.49
2019-02-22T21:27:43.285Z,52.44
2019-02-22T21:30:19.040Z,51.41
2019-02-22T21:32:47.298Z,52.05
2019-02-22T21:35:15.572Z,52.10
2019-02-22T21:37:44.373Z,52.24
2019-02-22T21:40:13.513Z,52.25
2019-02-22T21:42:41.773Z,52.13
2019-02-22T21:45:14.992Z,52.99
2019-02-22T21:47:54.152Z,52.40
2019-02-22T21:50:13.994Z,52.13
2019-02-22T21:52:42.268Z,51.65
2019-02-22T21:55:14.455Z,51.69
2019-02-22T21:57:42.715Z,52.26
2019-02-22T22:00:22.790Z,52.39
2019-02-22T22:02:51.052Z,51.82
2019-02-22T22:05:19.316Z,52.63
2019-02-22T22:08:01.353Z,52.31
2019-02-22T22:10:29.758Z,52.62
2019-02-22T22:12:57.872Z,52.19
2019-02-22T22:15:26.133Z,52.06
2019-02-22T22:17:54.392Z,53.11
2019-02-22T22:20:22.672Z,53.21
2019-02-22T22:22:51.929Z,53.35
2019-02-22T22:25:21.695Z,54.27
2019-02-22T22:27:49.955Z,53.43
2019-02-22T22:30:18.256Z,52.66
2019-02-22T22:32:46.518Z,53.01
2019-02-22T22:35:22.631Z,53.19
2019-02-22T22:37:53.233Z,53.58
2019-02-22T22:40:21.527Z,54.35
2019-02-22T22:42:49.824Z,53.39
2019-02-22T22:45:18.111Z,54.66
2019-02-22T22:47:46.598Z,54.29
2019-02-22T22:50:19.173Z,54.55
2019-02-22T22:52:47.542Z,54.66
2019-02-22T22:55:15.806Z,54.77
2019-02-22T22:57:44.071Z,54.21
2019-02-22T23:00:40.260Z,54.34
2019-02-22T23:03:08.511Z,54.59
2019-02-22T23:05:36.786Z,53.88
2019-02-22T23:08:05.205Z,54.24
2019-02-22T23:10:33.465Z,54.58
2019-02-22T23:13:01.750Z,54.42
2019-02-22T23:15:30.018Z,54.44
2019-02-22T23:17:58.280Z,54.11
2019-02-22T23:20:26.581Z,54.53
2019-02-22T23:22:54.877Z,53.70
2019-02-22T23:25:23.144Z,54.30
2019-02-22T23:27:51.444Z,55.47
2019-02-22T23:30:19.700Z,54.09
2019-02-22T23:32:47.977Z,54.57
2019-02-22T23:35:16.241Z,54.22
2019-02-22T23:37:45.011Z,55.47
2019-02-22T23:40:13.271Z,53.16
2019-02-22T23:42:41.540Z,54.04
2019-02-22T23:45:09.813Z,54.06
2019-02-22T23:47:38.076Z,52.78
2019-02-22T23:50:07.814Z,54.17
2019-02-22T23:52:36.076Z,54.09
2019-02-22T23:55:05.063Z,54.52
2019-02-22T23:57:33.327Z,54.34
